Kirby Moran — WDH9735 — position and weather

sailwx.info

Track history (hours):
 
Tides and Currents Weather Stations Pressure Air Temp Water Temp Dewpoint Dewpoint Depression Visibility Wind Speed Wind Dir Waves Ship Positions

Kirby Moran

Owner: Moran Towing Corporation, New Canaan, CT. More information available from US FCC via Universal Licensing System and Coast Guard Vessel Documentation Center.

Last reported at 2018-Feb-24 21:59 UTC. Time now 2018-Feb-24 22:01 UTC.
Position N 40°38' W 074°08'.

Length 28 m; draft 5.2 m.

Type: Tug. MMSI: 367671080.

Date/timePositionNaut miles runAvg speedWind from/ knotsBaromVisibWave heightAir tempDewpointWater temp
2018-Feb-24 21:59N 40°38' W 074°08'0 0.0
2018-Feb-24 21:30N 40°38' W 074°08'0 0.0
2018-Feb-24 20:55N 40°38' W 074°08'0 0.0
2018-Feb-24 20:30N 40°38' W 074°08'0 0.0
2018-Feb-24 20:00N 40°38' W 074°08'0 0.0
2018-Feb-24 19:30N 40°38' W 074°08'0 0.0
2018-Feb-24 19:00N 40°38' W 074°08'2 4.2
2018-Feb-24 18:30N 40°40' W 074°08'1 1.4
2018-Feb-24 18:00N 40°41' W 074°09'2 4.9
2018-Feb-24 17:30N 40°39' W 074°09'1 1.2
2018-Feb-24 17:00N 40°38' W 074°08'0 0.0
2018-Feb-24 16:30N 40°38' W 074°08'0 0.0
2018-Feb-24 16:00N 40°38' W 074°08'0 0.0
2018-Feb-24 15:29N 40°38' W 074°08'0 0.0
2018-Feb-24 14:59N 40°38' W 074°08'0 0.0
2018-Feb-24 14:30N 40°38' W 074°08'0 0.0
2018-Feb-24 14:01N 40°38' W 074°08'0 0.0
2018-Feb-24 13:27N 40°38' W 074°08'0 0.0
2018-Feb-24 13:01N 40°38' W 074°08'0 0.0
2018-Feb-24 12:30N 40°38' W 074°08'0 0.0
2018-Feb-24 12:00N 40°38' W 074°08'0 0.0
2018-Feb-24 11:28N 40°38' W 074°08'0 0.0
2018-Feb-24 11:00N 40°38' W 074°08'0 0.0
2018-Feb-24 10:30N 40°38' W 074°08'1 1.2
2018-Feb-24 10:00N 40°39' W 074°09'2 4.3
2018-Feb-24 09:30N 40°41' W 074°09'0 0.5
2018-Feb-24 08:58N 40°41' W 074°08'0 0.2
2018-Feb-24 08:29N 40°40' W 074°08'0 0.0
2018-Feb-24 07:59N 40°40' W 074°08'0 0.0
2018-Feb-24 07:30N 40°40' W 074°08'0 0.0
2018-Feb-24 07:00N 40°40' W 074°08'0 0.0
2018-Feb-24 06:30N 40°40' W 074°08'1 2.1
2018-Feb-24 05:57N 40°39' W 074°09'1 3.0
2018-Feb-24 05:30N 40°41' W 074°08'0 0.8
2018-Feb-24 05:00N 40°41' W 074°09'3 5.1
2018-Feb-24 04:30N 40°38' W 074°08'0 0.0
2018-Feb-24 04:00N 40°38' W 074°08'0 0.0
2018-Feb-24 03:29N 40°38' W 074°08'0 0.0
2018-Feb-24 03:00N 40°38' W 074°08'0 0.0
2018-Feb-24 02:30N 40°38' W 074°08'0 0.0
2018-Feb-24 02:00N 40°38' W 074°08'0 0.0
2018-Feb-24 01:30N 40°38' W 074°08'0 0.0
2018-Feb-24 01:00N 40°38' W 074°08'0 0.0
2018-Feb-24 00:27N 40°38' W 074°08'0 0.0
2018-Feb-23 23:58N 40°38' W 074°08'0 0.0
2018-Feb-23 23:27N 40°38' W 074°08'0 0.0
2018-Feb-23 22:57N 40°38' W 074°08'0 0.0
2018-Feb-23 22:30N 40°38' W 074°08'0 0.0
2018-Feb-23 22:00N 40°38' W 074°08'0 0.0
2018-Feb-23 21:29N 40°38' W 074°08'0 0.0
2018-Feb-23 21:00N 40°38' W 074°08'0 0.0
2018-Feb-23 20:29N 40°38' W 074°08'0 0.0
2018-Feb-23 19:49N 40°38' W 074°08'0 0.0
2018-Feb-23 19:30N 40°38' W 074°08'0 0.0
2018-Feb-23 19:00N 40°38' W 074°08'0 0.0
2018-Feb-23 18:28N 40°38' W 074°08'0 0.0
2018-Feb-23 18:00N 40°38' W 074°08'0 0.0
2018-Feb-23 17:30N 40°38' W 074°08'0 0.0
2018-Feb-23 17:00N 40°38' W 074°08'0 0.0
2018-Feb-23 16:30N 40°38' W 074°08'0 0.0
2018-Feb-23 16:00N 40°38' W 074°08'0 0.0
2018-Feb-23 15:30N 40°38' W 074°08'1 2.8
2018-Feb-23 15:00N 40°39' W 074°10'4 7.5
2018-Feb-23 14:27N 40°35' W 074°12'0 0.0
2018-Feb-23 13:47N 40°35' W 074°12'0 0.5
2018-Feb-23 13:28N 40°35' W 074°12'4 2.7
2018-Feb-23 11:55N 40°31' W 074°15'0 0.0
2018-Feb-23 11:29N 40°31' W 074°15'5 4.0
2018-Feb-23 10:08N 40°36' W 074°12'211.8
2018-Feb-23 10:00N 40°38' W 074°12'3 6.0
2018-Feb-23 09:28N 40°38' W 074°08'0 0.0
2018-Feb-23 08:57N 40°38' W 074°08'0 0.0
2018-Feb-23 08:30N 40°38' W 074°08'0 0.0
2018-Feb-23 07:57N 40°38' W 074°08'0 0.0
2018-Feb-23 07:17N 40°38' W 074°08'0 0.0
2018-Feb-23 07:00N 40°38' W 074°08'0 0.0
2018-Feb-23 06:27N 40°38' W 074°08'0 0.0
2018-Feb-23 06:00N 40°38' W 074°08'0 0.0
2018-Feb-23 05:24N 40°38' W 074°08'0 0.0
2018-Feb-23 04:57N 40°38' W 074°08'0 0.0
2018-Feb-23 02:20N 40°38' W 074°08'0 0.0
2018-Feb-23 01:58N 40°38' W 074°08'1 1.2
2018-Feb-23 01:30N 40°38' W 074°09'3 5.8
2018-Feb-23 00:59N 40°41' W 074°08'0 0.1
2018-Feb-23 00:30N 40°41' W 074°08'3 5.8
2018-Feb-23 00:00N 40°39' W 074°09'4 7.3
2018-Feb-22 23:30N 40°39' W 074°04'2 3.0
2018-Feb-22 23:00N 40°40' W 074°05'2 3.2
2018-Feb-22 22:30N 40°39' W 074°06'1 0.5
2018-Feb-22 19:57N 40°38' W 074°08'0 0.0
2018-Feb-22 18:20N 40°38' W 074°08'0 0.0
2018-Feb-22 18:00N 40°38' W 074°08'0 0.0
2018-Feb-22 17:30N 40°38' W 074°08'2 3.3
2018-Feb-22 16:54N 40°39' W 074°10'4 8.7
2018-Feb-22 16:30N 40°36' W 074°12'0 0.1
2018-Feb-22 12:41N 40°36' W 074°12'2 9.4
2018-Feb-22 12:29N 40°38' W 074°12'4 8.2
2018-Feb-22 12:00N 40°41' W 074°09'0 0.2
2018-Feb-22 11:30N 40°41' W 074°09'1 1.1
2018-Feb-22 11:00N 40°40' W 074°08'2 3.8
2018-Feb-22 10:30N 40°39' W 074°09'3 5.1
2018-Feb-22 09:59N 40°39' W 074°05'3 6.9
2018-Feb-22 09:30N 40°36' W 074°03'4 7.0
2018-Feb-22 09:00N 40°40' W 074°04'0 0.0
2018-Feb-22 08:30N 40°40' W 074°04'0 0.0
2018-Feb-22 07:59N 40°40' W 074°04'0 0.1
2018-Feb-22 07:29N 40°40' W 074°04'0 0.4
2018-Feb-22 06:59N 40°40' W 074°04'1 1.4
2018-Feb-22 06:30N 40°40' W 074°05'2 3.5
2018-Feb-22 06:00N 40°39' W 074°06'1 1.9
2018-Feb-22 05:29N 40°39' W 074°07'1 2.5
2018-Feb-22 05:00N 40°39' W 074°09'1 2.3
2018-Feb-22 04:30N 40°40' W 074°08'1 1.0
2018-Feb-22 04:00N 40°41' W 074°09'0 0.2
2018-Feb-22 03:30N 40°41' W 074°09'0 0.0
2018-Feb-22 03:00N 40°41' W 074°09'0 0.0
2018-Feb-22 02:30N 40°41' W 074°09'0 0.0
2018-Feb-22 02:00N 40°41' W 074°09'0 0.0
2018-Feb-22 01:30N 40°41' W 074°09'0 0.0
2018-Feb-22 00:59N 40°41' W 074°09'2 4.5
2018-Feb-22 00:29N 40°39' W 074°09'1 1.0
2018-Feb-21 23:50N 40°38' W 074°08'0 0.0
2018-Feb-21 22:52N 40°38' W 074°08'0 0.0
2018-Feb-21 21:56N 40°38' W 074°08'3 7.1
2018-Feb-21 21:30N 40°39' W 074°04'3 6.4
2018-Feb-21 20:59N 40°39' W 074°08'1 3.0
2018-Feb-21 20:30N 40°40' W 074°09'0 0.3
2018-Feb-21 20:00N 40°40' W 074°09'1 2.7
2018-Feb-21 19:30N 40°39' W 074°08'0 0.9
2018-Feb-21 18:59N 40°38' W 074°08'0 0.0
2018-Feb-21 18:21N 40°38' W 074°08'0 0.0
2018-Feb-21 17:57N 40°38' W 074°08'0 0.0
2018-Feb-21 17:30N 40°38' W 074°08'0 0.0
2018-Feb-21 17:00N 40°38' W 074°08'0 0.0
2018-Feb-21 16:29N 40°38' W 074°08'0 0.0
2018-Feb-21 15:59N 40°38' W 074°08'3 5.6
2018-Feb-21 15:28N 40°41' W 074°08'0 0.5
2018-Feb-21 14:59N 40°41' W 074°08'3 5.3
2018-Feb-21 14:29N 40°39' W 074°08'3 7.2
2018-Feb-21 14:00N 40°39' W 074°04'0 0.6
2018-Feb-21 13:29N 40°39' W 074°04'3 3.8
2018-Feb-21 12:40N 40°38' W 074°08'0 0.0
2018-Feb-21 12:30N 40°38' W 074°08'0 0.0
2018-Feb-21 12:00N 40°38' W 074°08'0 0.0
2018-Feb-21 11:30N 40°38' W 074°08'0 0.0
2018-Feb-21 11:00N 40°38' W 074°08'0 0.0
2018-Feb-21 10:30N 40°38' W 074°08'0 0.0
2018-Feb-21 10:00N 40°38' W 074°08'0 0.0
2018-Feb-21 09:29N 40°38' W 074°08'0 0.0
2018-Feb-21 09:00N 40°38' W 074°08'0 0.0
2018-Feb-21 08:29N 40°38' W 074°08'0 0.0
2018-Feb-21 07:58N 40°38' W 074°08'0 0.0
2018-Feb-21 07:30N 40°38' W 074°08'0 0.0
2018-Feb-21 07:00N 40°38' W 074°08'0 0.0
2018-Feb-21 06:30N 40°38' W 074°08'0 0.0
2018-Feb-21 05:30N 40°38' W 074°08'0 0.0
2018-Feb-21 05:00N 40°38' W 074°08'1 1.8
2018-Feb-21 04:29N 40°39' W 074°07'0 0.2
2018-Feb-21 04:00N 40°39' W 074°07'0 0.0
2018-Feb-21 03:30N 40°39' W 074°07'0 0.0
2018-Feb-21 03:00N 40°39' W 074°07'0 0.0
2018-Feb-21 02:30N 40°39' W 074°07'0 0.0
2018-Feb-21 02:00N 40°39' W 074°07'2 3.8
2018-Feb-21 01:30N 40°39' W 074°09'2 3.7
2018-Feb-21 01:00N 40°40' W 074°08'1 1.4
2018-Feb-21 00:30N 40°41' W 074°09'1 1.3
2018-Feb-21 00:00N 40°41' W 074°08'1 2.0
2018-Feb-20 23:30N 40°42' W 074°09'1 2.4
2018-Feb-20 23:00N 40°41' W 074°08'3 5.2
2018-Feb-20 22:30N 40°39' W 074°09'2 4.9
2018-Feb-20 22:00N 40°39' W 074°06'2 4.8
2018-Feb-20 21:30N 40°38' W 074°03'1 1.5
2018-Feb-20 21:00N 40°38' W 074°03'3 5.1
2018-Feb-20 20:30N 40°39' W 074°06'2 3.9
2018-Feb-20 20:00N 40°40' W 074°08'2 3.3
2018-Feb-20 19:30N 40°42' W 074°08'0 0.1
2018-Feb-20 19:00N 40°42' W 074°08'0 0.1
2018-Feb-20 18:30N 40°42' W 074°08'0 0.0
2018-Feb-20 18:00N 40°42' W 074°08'1 2.9
2018-Feb-20 17:30N 40°43' W 074°07'0 0.2
2018-Feb-20 17:00N 40°43' W 074°07'1 1.7
2018-Feb-20 16:30N 40°42' W 074°07'3 6.9
2018-Feb-20 15:59N 40°39' W 074°09'4 8.4
2018-Feb-20 15:31N 40°39' W 074°03'1 1.9
2018-Feb-20 15:00N 40°38' W 074°04'0 0.0
2018-Feb-20 14:30N 40°38' W 074°04'2 3.3
2018-Feb-20 14:00N 40°39' W 074°06'4 7.6
2018-Feb-20 13:30N 40°41' W 074°02'1 1.6
2018-Feb-20 13:00N 40°41' W 074°01'2 3.3
2018-Feb-20 12:30N 40°40' W 074°03'2 3.7
2018-Feb-20 12:00N 40°39' W 074°03'0 0.2
2018-Feb-20 11:30N 40°38' W 074°03'2 3.1
2018-Feb-20 11:00N 40°39' W 074°05'3 6.0
2018-Feb-20 10:30N 40°38' W 074°09'1 2.4
2018-Feb-20 10:00N 40°40' W 074°09'1 2.8
2018-Feb-20 09:30N 40°38' W 074°08'0 0.0
2018-Feb-20 09:00N 40°38' W 074°08'0 0.0
2018-Feb-20 08:30N 40°38' W 074°08'0 0.0
2018-Feb-20 07:59N 40°38' W 074°08'0 0.0
2018-Feb-20 07:30N 40°38' W 074°08'0 0.0
2018-Feb-20 07:00N 40°38' W 074°08'0 0.0
2018-Feb-20 06:30N 40°38' W 074°08'0 0.0
2018-Feb-20 05:59N 40°38' W 074°08'0 0.0
2018-Feb-20 05:30N 40°38' W 074°08'0 0.0
2018-Feb-20 05:00N 40°38' W 074°08'0 0.0
2018-Feb-20 04:30N 40°38' W 074°08'0 0.0
2018-Feb-20 04:00N 40°38' W 074°08'0 0.0
2018-Feb-20 03:30N 40°38' W 074°08'0 0.0
2018-Feb-20 03:00N 40°38' W 074°08'0 0.0
2018-Feb-20 02:21N 40°38' W 074°08'0 0.0
2018-Feb-20 01:59N 40°38' W 074°08'0 0.0
2018-Feb-20 01:17N 40°38' W 074°08'0 0.0
2018-Feb-20 00:57N 40°38' W 074°08'2 5.4
2018-Feb-20 00:29N 40°39' W 074°05'1 2.5
2018-Feb-20 00:00N 40°40' W 074°05'0 0.4
2018-Feb-19 23:30N 40°40' W 074°05'3 5.7
2018-Feb-19 22:55N 40°37' W 074°03'1 2.3
2018-Feb-19 22:30N 40°36' W 074°03'3 6.6
2018-Feb-19 22:00N 40°39' W 074°05'2 5.0
2018-Feb-19 21:30N 40°39' W 074°08'2 3.1
2018-Feb-19 21:00N 40°40' W 074°08'1 1.6
2018-Feb-19 20:30N 40°41' W 074°09'0 0.2
2018-Feb-19 19:58N 40°41' W 074°09'2 4.6
2018-Feb-19 19:30N 40°39' W 074°09'1 1.8
2018-Feb-19 18:59N 40°38' W 074°08'0 0.0
2018-Feb-19 18:26N 40°38' W 074°08'0 0.0
2018-Feb-19 17:07N 40°39' W 074°08'0 0.4
2018-Feb-19 16:59N 40°39' W 074°08'2 3.1
2018-Feb-19 16:30N 40°40' W 074°09'1 2.5
2018-Feb-19 15:59N 40°39' W 074°09'1 1.5
2018-Feb-19 15:30N 40°38' W 074°08'0 0.0
2018-Feb-19 14:58N 40°38' W 074°08'0 0.0
2018-Feb-19 14:29N 40°38' W 074°08'0 0.0
2018-Feb-19 14:00N 40°38' W 074°08'0 0.0
2018-Feb-19 13:30N 40°38' W 074°08'0 0.0
2018-Feb-19 13:00N 40°38' W 074°08'0 0.0
2018-Feb-19 12:30N 40°38' W 074°08'1 1.9
2018-Feb-19 12:00N 40°39' W 074°07'2 3.5
2018-Feb-19 11:30N 40°39' W 074°09'1 1.7
2018-Feb-19 11:00N 40°40' W 074°09'1 1.4
2018-Feb-19 10:30N 40°39' W 074°09'1 2.1
2018-Feb-19 09:59N 40°38' W 074°08'0 0.0
2018-Feb-19 09:30N 40°38' W 074°08'0 0.0
2018-Feb-19 09:00N 40°38' W 074°08'0 0.0
2018-Feb-19 08:24N 40°38' W 074°08'0 0.0
2018-Feb-19 08:00N 40°38' W 074°08'0 0.0
2018-Feb-19 07:30N 40°38' W 074°08'0 0.0
2018-Feb-19 07:00N 40°38' W 074°08'0 0.0
2018-Feb-19 06:27N 40°38' W 074°08'0 0.0
2018-Feb-19 05:53N 40°38' W 074°08'0 0.0
2018-Feb-19 05:30N 40°38' W 074°08'0 0.0
2018-Feb-19 05:00N 40°38' W 074°08'0 0.0
2018-Feb-19 04:30N 40°38' W 074°08'0 0.0
2018-Feb-19 03:59N 40°38' W 074°08'1 2.4
2018-Feb-19 03:30N 40°39' W 074°09'2 4.7
2018-Feb-19 03:00N 40°42' W 074°09'0 0.0
2018-Feb-19 02:30N 40°42' W 074°09'1 2.1
2018-Feb-19 02:00N 40°41' W 074°08'2 4.8
2018-Feb-19 01:30N 40°39' W 074°08'4 7.6
2018-Feb-19 01:00N 40°39' W 074°03'2 4.0
2018-Feb-19 00:29N 40°39' W 074°06'1 2.8
2018-Feb-19 00:00N 40°38' W 074°08'0 0.0
2018-Feb-18 23:30N 40°38' W 074°08'0 0.0
2018-Feb-18 23:00N 40°38' W 074°08'2 3.3
2018-Feb-18 22:30N 40°40' W 074°09'0 0.3
2018-Feb-18 22:00N 40°40' W 074°09'2 3.1
2018-Feb-18 21:28N 40°39' W 074°07'3 6.5
2018-Feb-18 21:00N 40°38' W 074°03'0 1.0
2018-Feb-18 20:30N 40°38' W 074°04'3 6.5
2018-Feb-18 20:00N 40°39' W 074°08'2 4.3
2018-Feb-18 19:30N 40°41' W 074°09'1 1.3
2018-Feb-18 19:00N 40°41' W 074°09'1 1.6
2018-Feb-18 18:30N 40°41' W 074°08'2 4.3
2018-Feb-18 18:00N 40°38' W 074°08'0 0.0
2018-Feb-18 17:27N 40°38' W 074°08'0 0.0
2018-Feb-18 17:00N 40°38' W 074°08'0 0.0
2018-Feb-18 16:30N 40°38' W 074°08'0 0.0
2018-Feb-18 16:00N 40°38' W 074°08'0 0.0
2018-Feb-18 15:29N 40°38' W 074°08'0 0.0
2018-Feb-18 14:50N 40°38' W 074°08'0 0.0
2018-Feb-18 14:30N 40°38' W 074°08'1 1.7
2018-Feb-18 14:00N 40°39' W 074°07'0 0.2
2018-Feb-18 13:30N 40°39' W 074°07'1 1.6
2018-Feb-18 12:59N 40°38' W 074°08'0 0.0
2018-Feb-18 12:30N 40°38' W 074°08'0 0.0
2018-Feb-18 11:58N 40°38' W 074°08'0 0.0
2018-Feb-18 11:29N 40°39' W 074°08'3 5.3
2018-Feb-18 11:00N 40°41' W 074°09'0 0.2
2018-Feb-18 10:30N 40°41' W 074°09'0 0.5
2018-Feb-18 10:00N 40°41' W 074°09'2 3.1
2018-Feb-18 09:30N 40°39' W 074°09'1 2.9
2018-Feb-18 09:00N 40°39' W 074°07'3 5.0
2018-Feb-18 08:30N 40°39' W 074°04'3 5.9
2018-Feb-18 08:00N 40°36' W 074°03'4 9.0
2018-Feb-18 07:30N 40°39' W 074°07'0 0.8
2018-Feb-18 07:00N 40°38' W 074°08'0 0.0
2018-Feb-18 06:30N 40°38' W 074°08'0 0.0
2018-Feb-18 06:00N 40°38' W 074°08'0 0.0
2018-Feb-18 05:30N 40°38' W 074°08'0 0.0
2018-Feb-18 05:00N 40°38' W 074°08'0 0.0
2018-Feb-18 04:29N 40°38' W 074°08'0 0.0
2018-Feb-18 04:00N 40°38' W 074°08'0 0.0
2018-Feb-18 03:30N 40°38' W 074°08'0 0.0
2018-Feb-18 03:00N 40°38' W 074°08'0 0.0
2018-Feb-18 02:20N 40°38' W 074°08'0 0.0
2018-Feb-18 02:00N 40°38' W 074°08'0 0.0
2018-Feb-18 01:30N 40°38' W 074°08'2 4.6
2018-Feb-18 01:00N 40°39' W 074°05'2 4.6
2018-Feb-18 00:30N 40°39' W 074°08'1 2.6
2018-Feb-18 00:00N 40°40' W 074°09'2 3.6
2018-Feb-17 23:30N 40°42' W 074°08'2 3.6
2018-Feb-17 23:00N 40°40' W 074°09'1 2.6
2018-Feb-17 22:29N 40°38' W 074°08'0 0.0
2018-Feb-17 22:00N 40°38' W 074°08'0 0.0
2018-Feb-17 21:29N 40°38' W 074°08'0 0.0
2018-Feb-17 20:58N 40°38' W 074°08'0 0.5
2018-Feb-17 20:22N 40°39' W 074°08'1 2.8
2018-Feb-17 19:59N 40°40' W 074°09'0 0.3
2018-Feb-17 19:30N 40°40' W 074°09'1 2.4
2018-Feb-17 19:00N 40°39' W 074°09'1 1.0
2018-Feb-17 18:25N 40°38' W 074°08'0 0.0
2018-Feb-17 17:58N 40°38' W 074°08'0 0.0
2018-Feb-17 17:14N 40°38' W 074°08'0 0.0
2018-Feb-17 16:56N 40°38' W 074°08'0 0.0
2018-Feb-17 16:26N 40°38' W 074°08'0 0.0
2018-Feb-17 15:59N 40°38' W 074°08'0 0.0
2018-Feb-17 14:51N 40°38' W 074°08'0 0.0
2018-Feb-17 14:27N 40°38' W 074°08'0 0.0
2018-Feb-17 13:53N 40°38' W 074°08'0 0.0
2018-Feb-17 13:27N 40°38' W 074°08'0 0.0
2018-Feb-17 12:59N 40°38' W 074°08'0 0.6
2018-Feb-17 12:30N 40°39' W 074°07'1 2.3
2018-Feb-17 12:01N 40°39' W 074°09'2 3.8
2018-Feb-17 11:30N 40°40' W 074°08'1 1.2
2018-Feb-17 11:00N 40°41' W 074°09'2 4.2
2018-Feb-17 10:30N 40°39' W 074°09'1 1.8
2018-Feb-17 09:59N 40°38' W 074°08'0 0.0
2018-Feb-17 09:25N 40°38' W 074°08'0 0.0
2018-Feb-17 08:59N 40°38' W 074°08'0 0.0
2018-Feb-17 08:09N 40°38' W 074°08'1 9.2
2018-Feb-17 08:00N 40°39' W 074°09'4 8.4
2018-Feb-17 07:29N 40°35' W 074°13'0 0.1
2018-Feb-17 06:51N 40°35' W 074°13'0 0.0
2018-Feb-17 06:15N 40°35' W 074°13'0 0.0
2018-Feb-17 05:15N 40°35' W 074°13'0 0.5
2018-Feb-17 04:55N 40°35' W 074°13'0 0.3
2018-Feb-17 04:30N 40°35' W 074°13'0 0.2
2018-Feb-17 03:29N 40°35' W 074°13'0 0.0
2018-Feb-17 02:49N 40°35' W 074°12'1 2.5
2018-Feb-17 02:30N 40°34' W 074°13'2 0.4
2018-Feb-16 21:03N 40°36' W 074°12'111.0
2018-Feb-16 20:56N 40°38' W 074°12'3 7.6
2018-Feb-16 20:29N 40°38' W 074°08'0 0.0
2018-Feb-16 20:00N 40°38' W 074°08'0 0.0
2018-Feb-16 19:30N 40°38' W 074°08'0 0.0
2018-Feb-16 18:59N 40°38' W 074°08'0 0.0
2018-Feb-16 18:30N 40°38' W 074°08'0 0.0
2018-Feb-16 18:00N 40°38' W 074°08'0 0.0
2018-Feb-16 17:29N 40°38' W 074°08'0 0.0
2018-Feb-16 16:59N 40°38' W 074°08'0 0.0
2018-Feb-16 16:19N 40°38' W 074°08'0 0.0
2018-Feb-16 15:59N 40°38' W 074°08'0 0.0
2018-Feb-16 15:28N 40°38' W 074°08'0 0.0
2018-Feb-16 14:57N 40°38' W 074°08'0 0.0
2018-Feb-16 14:28N 40°38' W 074°08'0 0.0
2018-Feb-16 13:47N 40°38' W 074°08'0 0.0
2018-Feb-16 13:23N 40°38' W 074°08'0 0.0
2018-Feb-16 12:59N 40°38' W 074°08'0 0.0
2018-Feb-16 12:12N 40°38' W 074°08'1 3.2
2018-Feb-16 12:00N 40°38' W 074°09'1 2.3
2018-Feb-16 11:30N 40°40' W 074°09'0 0.0
2018-Feb-16 11:00N 40°40' W 074°09'1 2.2
2018-Feb-16 10:29N 40°39' W 074°08'3 6.3
2018-Feb-16 10:00N 40°39' W 074°04'1 2.2
2018-Feb-16 09:30N 40°38' W 074°03'4 6.8
2018-Feb-16 08:58N 40°38' W 074°08'0 0.0
2018-Feb-16 08:30N 40°38' W 074°08'0 0.0
2018-Feb-16 08:00N 40°38' W 074°08'0 0.0
2018-Feb-16 07:24N 40°38' W 074°08'0 0.0
2018-Feb-16 06:59N 40°38' W 074°08'0 0.0
2018-Feb-16 06:28N 40°38' W 074°08'0 0.0
2018-Feb-16 06:00N 40°38' W 074°08'0 0.0
2018-Feb-16 05:29N 40°38' W 074°08'0 0.0
2018-Feb-16 04:55N 40°38' W 074°08'0 0.0
2018-Feb-16 04:30N 40°38' W 074°08'0 0.0
2018-Feb-16 03:59N 40°38' W 074°08'0 0.0
2018-Feb-16 03:29N 40°38' W 074°08'0 0.0
2018-Feb-16 03:00N 40°38' W 074°08'1 1.3
2018-Feb-16 02:30N 40°39' W 074°07'0 1.0
2018-Feb-16 02:00N 40°39' W 074°08'1 2.9
2018-Feb-16 01:30N 40°40' W 074°08'1 1.4
2018-Feb-16 01:00N 40°41' W 074°08'0 0.7
2018-Feb-16 00:30N 40°41' W 074°09'2 4.6
2018-Feb-16 00:00N 40°39' W 074°09'1 1.3
2018-Feb-15 23:29N 40°38' W 074°08'0 0.0
2018-Feb-15 22:59N 40°38' W 074°08'0 0.0
2018-Feb-15 22:29N 40°38' W 074°08'0 0.0
2018-Feb-15 22:00N 40°38' W 074°08'0 0.0
2018-Feb-15 21:28N 40°38' W 074°08'0 0.0
2018-Feb-15 21:00N 40°38' W 074°08'0 0.0
2018-Feb-15 20:29N 40°38' W 074°08'0 0.0
2018-Feb-15 20:00N 40°38' W 074°08'0 0.0
2018-Feb-15 19:30N 40°38' W 074°08'0 0.3
2018-Feb-15 18:59N 40°39' W 074°08'1 2.9
2018-Feb-15 18:30N 40°40' W 074°09'1 1.2
2018-Feb-15 18:00N 40°39' W 074°09'1 2.0
2018-Feb-15 17:29N 40°38' W 074°08'0 0.0
2018-Feb-15 16:57N 40°38' W 074°08'0 0.0
2018-Feb-15 16:19N 40°38' W 074°08'0 0.0
2018-Feb-15 15:51N 40°38' W 074°08'0 0.0
2018-Feb-15 15:22N 40°38' W 074°08'0 0.0
2018-Feb-15 15:00N 40°38' W 074°08'0 0.0
2018-Feb-15 14:28N 40°38' W 074°08'0 0.0
2018-Feb-15 13:46N 40°38' W 074°08'0 0.0
2018-Feb-15 13:30N 40°38' W 074°08'0 0.0
2018-Feb-15 12:18N 40°38' W 074°08'0 1.1
2018-Feb-15 12:00N 40°39' W 074°08'2 3.8
2018-Feb-15 11:30N 40°40' W 074°08'2 3.8
2018-Feb-15 11:00N 40°39' W 074°09'2 3.9
2018-Feb-15 10:30N 40°39' W 074°06'2 3.2
2018-Feb-15 10:00N 40°39' W 074°04'3 5.1
2018-Feb-15 09:30N 40°37' W 074°03'4 7.1
2018-Feb-15 09:00N 40°39' W 074°07'1 1.6
2018-Feb-15 08:30N 40°38' W 074°08'0 0.0
2018-Feb-15 08:00N 40°38' W 074°08'0 0.0
2018-Feb-15 07:30N 40°38' W 074°08'0 0.0
2018-Feb-15 07:00N 40°38' W 074°08'0 0.0
2018-Feb-15 06:30N 40°38' W 074°08'0 0.0
2018-Feb-15 06:00N 40°38' W 074°08'0 0.0
2018-Feb-15 05:30N 40°38' W 074°08'0 0.0
2018-Feb-15 05:00N 40°38' W 074°08'0 0.0
2018-Feb-15 04:30N 40°38' W 074°08'0 0.0
2018-Feb-15 03:59N 40°38' W 074°08'0 0.0
2018-Feb-15 03:29N 40°38' W 074°08'0 0.0
2018-Feb-15 03:00N 40°38' W 074°08'0 0.0
2018-Feb-15 02:29N 40°38' W 074°08'0 0.0
2018-Feb-15 02:00N 40°38' W 074°08'3 6.3
2018-Feb-15 01:29N 40°38' W 074°12'1 0.4
2018-Feb-14 23:26N 40°37' W 074°12'2 4.3
2018-Feb-14 23:00N 40°39' W 074°11'3 5.2
2018-Feb-14 22:23N 40°39' W 074°07'1 1.6
2018-Feb-14 21:59N 40°38' W 074°08'  
Track history (hours):
 
Tides and Currents Weather Stations Pressure Air Temp Water Temp Dewpoint Dewpoint Depression Visibility Wind Speed Wind Dir Waves Ship Positions

Kirby Moran

Owner: Moran Towing Corporation, New Canaan, CT. More information available from US FCC via Universal Licensing System and Coast Guard Vessel Documentation Center.

Last reported at 2018-Feb-24 21:59 UTC. Time now 2018-Feb-24 22:01 UTC.
Position N 40°38' W 074°08'.

Length 28 m; draft 5.2 m.

Type: Tug. MMSI: 367671080.

Date/timePositionNaut miles runAvg speedWind from/ knotsBaromVisibWave heightAir tempDewpointWater temp
2018-Feb-24 21:59N 40°38' W 074°08'0 0.0
2018-Feb-24 21:30N 40°38' W 074°08'0 0.0
2018-Feb-24 20:55N 40°38' W 074°08'0 0.0
2018-Feb-24 20:30N 40°38' W 074°08'0 0.0
2018-Feb-24 20:00N 40°38' W 074°08'0 0.0
2018-Feb-24 19:30N 40°38' W 074°08'0 0.0
2018-Feb-24 19:00N 40°38' W 074°08'2 4.2
2018-Feb-24 18:30N 40°40' W 074°08'1 1.4
2018-Feb-24 18:00N 40°41' W 074°09'2 4.9
2018-Feb-24 17:30N 40°39' W 074°09'1 1.2
2018-Feb-24 17:00N 40°38' W 074°08'0 0.0
2018-Feb-24 16:30N 40°38' W 074°08'0 0.0
2018-Feb-24 16:00N 40°38' W 074°08'0 0.0
2018-Feb-24 15:29N 40°38' W 074°08'0 0.0
2018-Feb-24 14:59N 40°38' W 074°08'0 0.0
2018-Feb-24 14:30N 40°38' W 074°08'0 0.0
2018-Feb-24 14:01N 40°38' W 074°08'0 0.0
2018-Feb-24 13:27N 40°38' W 074°08'0 0.0
2018-Feb-24 13:01N 40°38' W 074°08'0 0.0
2018-Feb-24 12:30N 40°38' W 074°08'0 0.0
2018-Feb-24 12:00N 40°38' W 074°08'0 0.0
2018-Feb-24 11:28N 40°38' W 074°08'0 0.0
2018-Feb-24 11:00N 40°38' W 074°08'0 0.0
2018-Feb-24 10:30N 40°38' W 074°08'1 1.2
2018-Feb-24 10:00N 40°39' W 074°09'2 4.3
2018-Feb-24 09:30N 40°41' W 074°09'0 0.5
2018-Feb-24 08:58N 40°41' W 074°08'0 0.2
2018-Feb-24 08:29N 40°40' W 074°08'0 0.0
2018-Feb-24 07:59N 40°40' W 074°08'0 0.0
2018-Feb-24 07:30N 40°40' W 074°08'0 0.0
2018-Feb-24 07:00N 40°40' W 074°08'0 0.0
2018-Feb-24 06:30N 40°40' W 074°08'1 2.1
2018-Feb-24 05:57N 40°39' W 074°09'1 3.0
2018-Feb-24 05:30N 40°41' W 074°08'0 0.8
2018-Feb-24 05:00N 40°41' W 074°09'3 5.1
2018-Feb-24 04:30N 40°38' W 074°08'0 0.0
2018-Feb-24 04:00N 40°38' W 074°08'0 0.0
2018-Feb-24 03:29N 40°38' W 074°08'0 0.0
2018-Feb-24 03:00N 40°38' W 074°08'0 0.0
2018-Feb-24 02:30N 40°38' W 074°08'0 0.0
2018-Feb-24 02:00N 40°38' W 074°08'0 0.0
2018-Feb-24 01:30N 40°38' W 074°08'0 0.0
2018-Feb-24 01:00N 40°38' W 074°08'0 0.0
2018-Feb-24 00:27N 40°38' W 074°08'0 0.0
2018-Feb-23 23:58N 40°38' W 074°08'0 0.0
2018-Feb-23 23:27N 40°38' W 074°08'0 0.0
2018-Feb-23 22:57N 40°38' W 074°08'0 0.0
2018-Feb-23 22:30N 40°38' W 074°08'0 0.0
2018-Feb-23 22:00N 40°38' W 074°08'0 0.0
2018-Feb-23 21:29N 40°38' W 074°08'0 0.0
2018-Feb-23 21:00N 40°38' W 074°08'0 0.0
2018-Feb-23 20:29N 40°38' W 074°08'0 0.0
2018-Feb-23 19:49N 40°38' W 074°08'0 0.0
2018-Feb-23 19:30N 40°38' W 074°08'0 0.0
2018-Feb-23 19:00N 40°38' W 074°08'0 0.0
2018-Feb-23 18:28N 40°38' W 074°08'0 0.0
2018-Feb-23 18:00N 40°38' W 074°08'0 0.0
2018-Feb-23 17:30N 40°38' W 074°08'0 0.0
2018-Feb-23 17:00N 40°38' W 074°08'0 0.0
2018-Feb-23 16:30N 40°38' W 074°08'0 0.0
2018-Feb-23 16:00N 40°38' W 074°08'0 0.0
2018-Feb-23 15:30N 40°38' W 074°08'1 2.8
2018-Feb-23 15:00N 40°39' W 074°10'4 7.5
2018-Feb-23 14:27N 40°35' W 074°12'0 0.0
2018-Feb-23 13:47N 40°35' W 074°12'0 0.5
2018-Feb-23 13:28N 40°35' W 074°12'4 2.7
2018-Feb-23 11:55N 40°31' W 074°15'0 0.0
2018-Feb-23 11:29N 40°31' W 074°15'5 4.0
2018-Feb-23 10:08N 40°36' W 074°12'211.8
2018-Feb-23 10:00N 40°38' W 074°12'3 6.0
2018-Feb-23 09:28N 40°38' W 074°08'0 0.0
2018-Feb-23 08:57N 40°38' W 074°08'0 0.0
2018-Feb-23 08:30N 40°38' W 074°08'0 0.0
2018-Feb-23 07:57N 40°38' W 074°08'0 0.0
2018-Feb-23 07:17N 40°38' W 074°08'0 0.0
2018-Feb-23 07:00N 40°38' W 074°08'0 0.0
2018-Feb-23 06:27N 40°38' W 074°08'0 0.0
2018-Feb-23 06:00N 40°38' W 074°08'0 0.0
2018-Feb-23 05:24N 40°38' W 074°08'0 0.0
2018-Feb-23 04:57N 40°38' W 074°08'0 0.0
2018-Feb-23 02:20N 40°38' W 074°08'0 0.0
2018-Feb-23 01:58N 40°38' W 074°08'1 1.2
2018-Feb-23 01:30N 40°38' W 074°09'3 5.8
2018-Feb-23 00:59N 40°41' W 074°08'0 0.1
2018-Feb-23 00:30N 40°41' W 074°08'3 5.8
2018-Feb-23 00:00N 40°39' W 074°09'4 7.3
2018-Feb-22 23:30N 40°39' W 074°04'2 3.0
2018-Feb-22 23:00N 40°40' W 074°05'2 3.2
2018-Feb-22 22:30N 40°39' W 074°06'1 0.5
2018-Feb-22 19:57N 40°38' W 074°08'0 0.0
2018-Feb-22 18:20N 40°38' W 074°08'0 0.0
2018-Feb-22 18:00N 40°38' W 074°08'0 0.0
2018-Feb-22 17:30N 40°38' W 074°08'2 3.3
2018-Feb-22 16:54N 40°39' W 074°10'4 8.7
2018-Feb-22 16:30N 40°36' W 074°12'0 0.1
2018-Feb-22 12:41N 40°36' W 074°12'2 9.4
2018-Feb-22 12:29N 40°38' W 074°12'4 8.2
2018-Feb-22 12:00N 40°41' W 074°09'0 0.2
2018-Feb-22 11:30N 40°41' W 074°09'1 1.1
2018-Feb-22 11:00N 40°40' W 074°08'2 3.8
2018-Feb-22 10:30N 40°39' W 074°09'3 5.1
2018-Feb-22 09:59N 40°39' W 074°05'3 6.9
2018-Feb-22 09:30N 40°36' W 074°03'4 7.0
2018-Feb-22 09:00N 40°40' W 074°04'0 0.0
2018-Feb-22 08:30N 40°40' W 074°04'0 0.0
2018-Feb-22 07:59N 40°40' W 074°04'0 0.1
2018-Feb-22 07:29N 40°40' W 074°04'0 0.4
2018-Feb-22 06:59N 40°40' W 074°04'1 1.4
2018-Feb-22 06:30N 40°40' W 074°05'2 3.5
2018-Feb-22 06:00N 40°39' W 074°06'1 1.9
2018-Feb-22 05:29N 40°39' W 074°07'1 2.5
2018-Feb-22 05:00N 40°39' W 074°09'1 2.3
2018-Feb-22 04:30N 40°40' W 074°08'1 1.0
2018-Feb-22 04:00N 40°41' W 074°09'0 0.2
2018-Feb-22 03:30N 40°41' W 074°09'0 0.0
2018-Feb-22 03:00N 40°41' W 074°09'0 0.0
2018-Feb-22 02:30N 40°41' W 074°09'0 0.0
2018-Feb-22 02:00N 40°41' W 074°09'0 0.0
2018-Feb-22 01:30N 40°41' W 074°09'0 0.0
2018-Feb-22 00:59N 40°41' W 074°09'2 4.5
2018-Feb-22 00:29N 40°39' W 074°09'1 1.0
2018-Feb-21 23:50N 40°38' W 074°08'0 0.0
2018-Feb-21 22:52N 40°38' W 074°08'0 0.0
2018-Feb-21 21:56N 40°38' W 074°08'3 7.1
2018-Feb-21 21:30N 40°39' W 074°04'3 6.4
2018-Feb-21 20:59N 40°39' W 074°08'1 3.0
2018-Feb-21 20:30N 40°40' W 074°09'0 0.3
2018-Feb-21 20:00N 40°40' W 074°09'1 2.7
2018-Feb-21 19:30N 40°39' W 074°08'0 0.9
2018-Feb-21 18:59N 40°38' W 074°08'0 0.0
2018-Feb-21 18:21N 40°38' W 074°08'0 0.0
2018-Feb-21 17:57N 40°38' W 074°08'0 0.0
2018-Feb-21 17:30N 40°38' W 074°08'0 0.0
2018-Feb-21 17:00N 40°38' W 074°08'0 0.0
2018-Feb-21 16:29N 40°38' W 074°08'0 0.0
2018-Feb-21 15:59N 40°38' W 074°08'3 5.6
2018-Feb-21 15:28N 40°41' W 074°08'0 0.5
2018-Feb-21 14:59N 40°41' W 074°08'3 5.3
2018-Feb-21 14:29N 40°39' W 074°08'3 7.2
2018-Feb-21 14:00N 40°39' W 074°04'0 0.6
2018-Feb-21 13:29N 40°39' W 074°04'3 3.8
2018-Feb-21 12:40N 40°38' W 074°08'0 0.0
2018-Feb-21 12:30N 40°38' W 074°08'0 0.0
2018-Feb-21 12:00N 40°38' W 074°08'0 0.0
2018-Feb-21 11:30N 40°38' W 074°08'0 0.0
2018-Feb-21 11:00N 40°38' W 074°08'0 0.0
2018-Feb-21 10:30N 40°38' W 074°08'0 0.0
2018-Feb-21 10:00N 40°38' W 074°08'0 0.0
2018-Feb-21 09:29N 40°38' W 074°08'0 0.0
2018-Feb-21 09:00N 40°38' W 074°08'0 0.0
2018-Feb-21 08:29N 40°38' W 074°08'0 0.0
2018-Feb-21 07:58N 40°38' W 074°08'0 0.0
2018-Feb-21 07:30N 40°38' W 074°08'0 0.0
2018-Feb-21 07:00N 40°38' W 074°08'0 0.0
2018-Feb-21 06:30N 40°38' W 074°08'0 0.0
2018-Feb-21 05:30N 40°38' W 074°08'0 0.0
2018-Feb-21 05:00N 40°38' W 074°08'1 1.8
2018-Feb-21 04:29N 40°39' W 074°07'0 0.2
2018-Feb-21 04:00N 40°39' W 074°07'0 0.0
2018-Feb-21 03:30N 40°39' W 074°07'0 0.0
2018-Feb-21 03:00N 40°39' W 074°07'0 0.0
2018-Feb-21 02:30N 40°39' W 074°07'0 0.0
2018-Feb-21 02:00N 40°39' W 074°07'2 3.8
2018-Feb-21 01:30N 40°39' W 074°09'2 3.7
2018-Feb-21 01:00N 40°40' W 074°08'1 1.4
2018-Feb-21 00:30N 40°41' W 074°09'1 1.3
2018-Feb-21 00:00N 40°41' W 074°08'1 2.0
2018-Feb-20 23:30N 40°42' W 074°09'1 2.4
2018-Feb-20 23:00N 40°41' W 074°08'3 5.2
2018-Feb-20 22:30N 40°39' W 074°09'2 4.9
2018-Feb-20 22:00N 40°39' W 074°06'2 4.8
2018-Feb-20 21:30N 40°38' W 074°03'1 1.5
2018-Feb-20 21:00N 40°38' W 074°03'3 5.1
2018-Feb-20 20:30N 40°39' W 074°06'2 3.9
2018-Feb-20 20:00N 40°40' W 074°08'2 3.3
2018-Feb-20 19:30N 40°42' W 074°08'0 0.1
2018-Feb-20 19:00N 40°42' W 074°08'0 0.1
2018-Feb-20 18:30N 40°42' W 074°08'0 0.0
2018-Feb-20 18:00N 40°42' W 074°08'1 2.9
2018-Feb-20 17:30N 40°43' W 074°07'0 0.2
2018-Feb-20 17:00N 40°43' W 074°07'1 1.7
2018-Feb-20 16:30N 40°42' W 074°07'3 6.9
2018-Feb-20 15:59N 40°39' W 074°09'4 8.4
2018-Feb-20 15:31N 40°39' W 074°03'1 1.9
2018-Feb-20 15:00N 40°38' W 074°04'0 0.0
2018-Feb-20 14:30N 40°38' W 074°04'2 3.3
2018-Feb-20 14:00N 40°39' W 074°06'4 7.6
2018-Feb-20 13:30N 40°41' W 074°02'1 1.6
2018-Feb-20 13:00N 40°41' W 074°01'2 3.3
2018-Feb-20 12:30N 40°40' W 074°03'2 3.7
2018-Feb-20 12:00N 40°39' W 074°03'0 0.2
2018-Feb-20 11:30N 40°38' W 074°03'2 3.1
2018-Feb-20 11:00N 40°39' W 074°05'3 6.0
2018-Feb-20 10:30N 40°38' W 074°09'1 2.4
2018-Feb-20 10:00N 40°40' W 074°09'1 2.8
2018-Feb-20 09:30N 40°38' W 074°08'0 0.0
2018-Feb-20 09:00N 40°38' W 074°08'0 0.0
2018-Feb-20 08:30N 40°38' W 074°08'0 0.0
2018-Feb-20 07:59N 40°38' W 074°08'0 0.0
2018-Feb-20 07:30N 40°38' W 074°08'0 0.0
2018-Feb-20 07:00N 40°38' W 074°08'0 0.0
2018-Feb-20 06:30N 40°38' W 074°08'0 0.0
2018-Feb-20 05:59N 40°38' W 074°08'0 0.0
2018-Feb-20 05:30N 40°38' W 074°08'0 0.0
2018-Feb-20 05:00N 40°38' W 074°08'0 0.0
2018-Feb-20 04:30N 40°38' W 074°08'0 0.0
2018-Feb-20 04:00N 40°38' W 074°08'0 0.0
2018-Feb-20 03:30N 40°38' W 074°08'0 0.0
2018-Feb-20 03:00N 40°38' W 074°08'0 0.0
2018-Feb-20 02:21N 40°38' W 074°08'0 0.0
2018-Feb-20 01:59N 40°38' W 074°08'0 0.0
2018-Feb-20 01:17N 40°38' W 074°08'0 0.0
2018-Feb-20 00:57N 40°38' W 074°08'2 5.4
2018-Feb-20 00:29N 40°39' W 074°05'1 2.5
2018-Feb-20 00:00N 40°40' W 074°05'0 0.4
2018-Feb-19 23:30N 40°40' W 074°05'3 5.7
2018-Feb-19 22:55N 40°37' W 074°03'1 2.3
2018-Feb-19 22:30N 40°36' W 074°03'3 6.6
2018-Feb-19 22:00N 40°39' W 074°05'2 5.0
2018-Feb-19 21:30N 40°39' W 074°08'2 3.1
2018-Feb-19 21:00N 40°40' W 074°08'1 1.6
2018-Feb-19 20:30N 40°41' W 074°09'0 0.2
2018-Feb-19 19:58N 40°41' W 074°09'2 4.6
2018-Feb-19 19:30N 40°39' W 074°09'1 1.8
2018-Feb-19 18:59N 40°38' W 074°08'0 0.0
2018-Feb-19 18:26N 40°38' W 074°08'0 0.0
2018-Feb-19 17:07N 40°39' W 074°08'0 0.4
2018-Feb-19 16:59N 40°39' W 074°08'2 3.1
2018-Feb-19 16:30N 40°40' W 074°09'1 2.5
2018-Feb-19 15:59N 40°39' W 074°09'1 1.5
2018-Feb-19 15:30N 40°38' W 074°08'0 0.0
2018-Feb-19 14:58N 40°38' W 074°08'0 0.0
2018-Feb-19 14:29N 40°38' W 074°08'0 0.0
2018-Feb-19 14:00N 40°38' W 074°08'0 0.0
2018-Feb-19 13:30N 40°38' W 074°08'0 0.0
2018-Feb-19 13:00N 40°38' W 074°08'0 0.0
2018-Feb-19 12:30N 40°38' W 074°08'1 1.9
2018-Feb-19 12:00N 40°39' W 074°07'2 3.5
2018-Feb-19 11:30N 40°39' W 074°09'1 1.7
2018-Feb-19 11:00N 40°40' W 074°09'1 1.4
2018-Feb-19 10:30N 40°39' W 074°09'1 2.1
2018-Feb-19 09:59N 40°38' W 074°08'0 0.0
2018-Feb-19 09:30N 40°38' W 074°08'0 0.0
2018-Feb-19 09:00N 40°38' W 074°08'0 0.0
2018-Feb-19 08:24N 40°38' W 074°08'0 0.0
2018-Feb-19 08:00N 40°38' W 074°08'0 0.0
2018-Feb-19 07:30N 40°38' W 074°08'0 0.0
2018-Feb-19 07:00N 40°38' W 074°08'0 0.0
2018-Feb-19 06:27N 40°38' W 074°08'0 0.0
2018-Feb-19 05:53N 40°38' W 074°08'0 0.0
2018-Feb-19 05:30N 40°38' W 074°08'0 0.0
2018-Feb-19 05:00N 40°38' W 074°08'0 0.0
2018-Feb-19 04:30N 40°38' W 074°08'0 0.0
2018-Feb-19 03:59N 40°38' W 074°08'1 2.4
2018-Feb-19 03:30N 40°39' W 074°09'2 4.7
2018-Feb-19 03:00N 40°42' W 074°09'0 0.0
2018-Feb-19 02:30N 40°42' W 074°09'1 2.1
2018-Feb-19 02:00N 40°41' W 074°08'2 4.8
2018-Feb-19 01:30N 40°39' W 074°08'4 7.6
2018-Feb-19 01:00N 40°39' W 074°03'2 4.0
2018-Feb-19 00:29N 40°39' W 074°06'1 2.8
2018-Feb-19 00:00N 40°38' W 074°08'0 0.0
2018-Feb-18 23:30N 40°38' W 074°08'0 0.0
2018-Feb-18 23:00N 40°38' W 074°08'2 3.3
2018-Feb-18 22:30N 40°40' W 074°09'0 0.3
2018-Feb-18 22:00N 40°40' W 074°09'2 3.1
2018-Feb-18 21:28N 40°39' W 074°07'3 6.5
2018-Feb-18 21:00N 40°38' W 074°03'0 1.0
2018-Feb-18 20:30N 40°38' W 074°04'3 6.5
2018-Feb-18 20:00N 40°39' W 074°08'2 4.3
2018-Feb-18 19:30N 40°41' W 074°09'1 1.3
2018-Feb-18 19:00N 40°41' W 074°09'1 1.6
2018-Feb-18 18:30N 40°41' W 074°08'2 4.3
2018-Feb-18 18:00N 40°38' W 074°08'0 0.0
2018-Feb-18 17:27N 40°38' W 074°08'0 0.0
2018-Feb-18 17:00N 40°38' W 074°08'0 0.0
2018-Feb-18 16:30N 40°38' W 074°08'0 0.0
2018-Feb-18 16:00N 40°38' W 074°08'0 0.0
2018-Feb-18 15:29N 40°38' W 074°08'0 0.0
2018-Feb-18 14:50N 40°38' W 074°08'0 0.0
2018-Feb-18 14:30N 40°38' W 074°08'1 1.7
2018-Feb-18 14:00N 40°39' W 074°07'0 0.2
2018-Feb-18 13:30N 40°39' W 074°07'1 1.6
2018-Feb-18 12:59N 40°38' W 074°08'0 0.0
2018-Feb-18 12:30N 40°38' W 074°08'0 0.0
2018-Feb-18 11:58N 40°38' W 074°08'0 0.0
2018-Feb-18 11:29N 40°39' W 074°08'3 5.3
2018-Feb-18 11:00N 40°41' W 074°09'0 0.2
2018-Feb-18 10:30N 40°41' W 074°09'0 0.5
2018-Feb-18 10:00N 40°41' W 074°09'2 3.1
2018-Feb-18 09:30N 40°39' W 074°09'1 2.9
2018-Feb-18 09:00N 40°39' W 074°07'3 5.0
2018-Feb-18 08:30N 40°39' W 074°04'3 5.9
2018-Feb-18 08:00N 40°36' W 074°03'4 9.0
2018-Feb-18 07:30N 40°39' W 074°07'0 0.8
2018-Feb-18 07:00N 40°38' W 074°08'0 0.0
2018-Feb-18 06:30N 40°38' W 074°08'0 0.0
2018-Feb-18 06:00N 40°38' W 074°08'0 0.0
2018-Feb-18 05:30N 40°38' W 074°08'0 0.0
2018-Feb-18 05:00N 40°38' W 074°08'0 0.0
2018-Feb-18 04:29N 40°38' W 074°08'0 0.0
2018-Feb-18 04:00N 40°38' W 074°08'0 0.0
2018-Feb-18 03:30N 40°38' W 074°08'0 0.0
2018-Feb-18 03:00N 40°38' W 074°08'0 0.0
2018-Feb-18 02:20N 40°38' W 074°08'0 0.0
2018-Feb-18 02:00N 40°38' W 074°08'0 0.0
2018-Feb-18 01:30N 40°38' W 074°08'2 4.6
2018-Feb-18 01:00N 40°39' W 074°05'2 4.6
2018-Feb-18 00:30N 40°39' W 074°08'1 2.6
2018-Feb-18 00:00N 40°40' W 074°09'2 3.6
2018-Feb-17 23:30N 40°42' W 074°08'2 3.6
2018-Feb-17 23:00N 40°40' W 074°09'1 2.6
2018-Feb-17 22:29N 40°38' W 074°08'0 0.0
2018-Feb-17 22:00N 40°38' W 074°08'0 0.0
2018-Feb-17 21:29N 40°38' W 074°08'0 0.0
2018-Feb-17 20:58N 40°38' W 074°08'0 0.5
2018-Feb-17 20:22N 40°39' W 074°08'1 2.8
2018-Feb-17 19:59N 40°40' W 074°09'0 0.3
2018-Feb-17 19:30N 40°40' W 074°09'1 2.4
2018-Feb-17 19:00N 40°39' W 074°09'1 1.0
2018-Feb-17 18:25N 40°38' W 074°08'0 0.0
2018-Feb-17 17:58N 40°38' W 074°08'0 0.0
2018-Feb-17 17:14N 40°38' W 074°08'0 0.0
2018-Feb-17 16:56N 40°38' W 074°08'0 0.0
2018-Feb-17 16:26N 40°38' W 074°08'0 0.0
2018-Feb-17 15:59N 40°38' W 074°08'0 0.0
2018-Feb-17 14:51N 40°38' W 074°08'0 0.0
2018-Feb-17 14:27N 40°38' W 074°08'0 0.0
2018-Feb-17 13:53N 40°38' W 074°08'0 0.0
2018-Feb-17 13:27N 40°38' W 074°08'0 0.0
2018-Feb-17 12:59N 40°38' W 074°08'0 0.6
2018-Feb-17 12:30N 40°39' W 074°07'1 2.3
2018-Feb-17 12:01N 40°39' W 074°09'2 3.8
2018-Feb-17 11:30N 40°40' W 074°08'1 1.2
2018-Feb-17 11:00N 40°41' W 074°09'2 4.2
2018-Feb-17 10:30N 40°39' W 074°09'1 1.8
2018-Feb-17 09:59N 40°38' W 074°08'0 0.0
2018-Feb-17 09:25N 40°38' W 074°08'0 0.0
2018-Feb-17 08:59N 40°38' W 074°08'0 0.0
2018-Feb-17 08:09N 40°38' W 074°08'1 9.2
2018-Feb-17 08:00N 40°39' W 074°09'4 8.4
2018-Feb-17 07:29N 40°35' W 074°13'0 0.1
2018-Feb-17 06:51N 40°35' W 074°13'0 0.0
2018-Feb-17 06:15N 40°35' W 074°13'0 0.0
2018-Feb-17 05:15N 40°35' W 074°13'0 0.5
2018-Feb-17 04:55N 40°35' W 074°13'0 0.3
2018-Feb-17 04:30N 40°35' W 074°13'0 0.2
2018-Feb-17 03:29N 40°35' W 074°13'0 0.0
2018-Feb-17 02:49N 40°35' W 074°12'1 2.5
2018-Feb-17 02:30N 40°34' W 074°13'2 0.4
2018-Feb-16 21:03N 40°36' W 074°12'111.0
2018-Feb-16 20:56N 40°38' W 074°12'3 7.6
2018-Feb-16 20:29N 40°38' W 074°08'0 0.0
2018-Feb-16 20:00N 40°38' W 074°08'0 0.0
2018-Feb-16 19:30N 40°38' W 074°08'0 0.0
2018-Feb-16 18:59N 40°38' W 074°08'0 0.0
2018-Feb-16 18:30N 40°38' W 074°08'0 0.0
2018-Feb-16 18:00N 40°38' W 074°08'0 0.0
2018-Feb-16 17:29N 40°38' W 074°08'0 0.0
2018-Feb-16 16:59N 40°38' W 074°08'0 0.0
2018-Feb-16 16:19N 40°38' W 074°08'0 0.0
2018-Feb-16 15:59N 40°38' W 074°08'0 0.0
2018-Feb-16 15:28N 40°38' W 074°08'0 0.0
2018-Feb-16 14:57N 40°38' W 074°08'0 0.0
2018-Feb-16 14:28N 40°38' W 074°08'0 0.0
2018-Feb-16 13:47N 40°38' W 074°08'0 0.0
2018-Feb-16 13:23N 40°38' W 074°08'0 0.0
2018-Feb-16 12:59N 40°38' W 074°08'0 0.0
2018-Feb-16 12:12N 40°38' W 074°08'1 3.2
2018-Feb-16 12:00N 40°38' W 074°09'1 2.3
2018-Feb-16 11:30N 40°40' W 074°09'0 0.0
2018-Feb-16 11:00N 40°40' W 074°09'1 2.2
2018-Feb-16 10:29N 40°39' W 074°08'3 6.3
2018-Feb-16 10:00N 40°39' W 074°04'1 2.2
2018-Feb-16 09:30N 40°38' W 074°03'4 6.8
2018-Feb-16 08:58N 40°38' W 074°08'0 0.0
2018-Feb-16 08:30N 40°38' W 074°08'0 0.0
2018-Feb-16 08:00N 40°38' W 074°08'0 0.0
2018-Feb-16 07:24N 40°38' W 074°08'0 0.0
2018-Feb-16 06:59N 40°38' W 074°08'0 0.0
2018-Feb-16 06:28N 40°38' W 074°08'0 0.0
2018-Feb-16 06:00N 40°38' W 074°08'0 0.0
2018-Feb-16 05:29N 40°38' W 074°08'0 0.0
2018-Feb-16 04:55N 40°38' W 074°08'0 0.0
2018-Feb-16 04:30N 40°38' W 074°08'0 0.0
2018-Feb-16 03:59N 40°38' W 074°08'0 0.0
2018-Feb-16 03:29N 40°38' W 074°08'0 0.0
2018-Feb-16 03:00N 40°38' W 074°08'1 1.3
2018-Feb-16 02:30N 40°39' W 074°07'0 1.0
2018-Feb-16 02:00N 40°39' W 074°08'1 2.9
2018-Feb-16 01:30N 40°40' W 074°08'1 1.4
2018-Feb-16 01:00N 40°41' W 074°08'0 0.7
2018-Feb-16 00:30N 40°41' W 074°09'2 4.6
2018-Feb-16 00:00N 40°39' W 074°09'1 1.3
2018-Feb-15 23:29N 40°38' W 074°08'0 0.0
2018-Feb-15 22:59N 40°38' W 074°08'0 0.0
2018-Feb-15 22:29N 40°38' W 074°08'0 0.0
2018-Feb-15 22:00N 40°38' W 074°08'0 0.0
2018-Feb-15 21:28N 40°38' W 074°08'0 0.0
2018-Feb-15 21:00N 40°38' W 074°08'0 0.0
2018-Feb-15 20:29N 40°38' W 074°08'0 0.0
2018-Feb-15 20:00N 40°38' W 074°08'0 0.0
2018-Feb-15 19:30N 40°38' W 074°08'0 0.3
2018-Feb-15 18:59N 40°39' W 074°08'1 2.9
2018-Feb-15 18:30N 40°40' W 074°09'1 1.2
2018-Feb-15 18:00N 40°39' W 074°09'1 2.0
2018-Feb-15 17:29N 40°38' W 074°08'0 0.0
2018-Feb-15 16:57N 40°38' W 074°08'0 0.0
2018-Feb-15 16:19N 40°38' W 074°08'0 0.0
2018-Feb-15 15:51N 40°38' W 074°08'0 0.0
2018-Feb-15 15:22N 40°38' W 074°08'0 0.0
2018-Feb-15 15:00N 40°38' W 074°08'0 0.0
2018-Feb-15 14:28N 40°38' W 074°08'0 0.0
2018-Feb-15 13:46N 40°38' W 074°08'0 0.0
2018-Feb-15 13:30N 40°38' W 074°08'0 0.0
2018-Feb-15 12:18N 40°38' W 074°08'0 1.1
2018-Feb-15 12:00N 40°39' W 074°08'2 3.8
2018-Feb-15 11:30N 40°40' W 074°08'2 3.8
2018-Feb-15 11:00N 40°39' W 074°09'2 3.9
2018-Feb-15 10:30N 40°39' W 074°06'2 3.2
2018-Feb-15 10:00N 40°39' W 074°04'3 5.1
2018-Feb-15 09:30N 40°37' W 074°03'4 7.1
2018-Feb-15 09:00N 40°39' W 074°07'1 1.6
2018-Feb-15 08:30N 40°38' W 074°08'0 0.0
2018-Feb-15 08:00N 40°38' W 074°08'0 0.0
2018-Feb-15 07:30N 40°38' W 074°08'0 0.0
2018-Feb-15 07:00N 40°38' W 074°08'0 0.0
2018-Feb-15 06:30N 40°38' W 074°08'0 0.0
2018-Feb-15 06:00N 40°38' W 074°08'0 0.0
2018-Feb-15 05:30N 40°38' W 074°08'0 0.0
2018-Feb-15 05:00N 40°38' W 074°08'0 0.0
2018-Feb-15 04:30N 40°38' W 074°08'0 0.0
2018-Feb-15 03:59N 40°38' W 074°08'0 0.0
2018-Feb-15 03:29N 40°38' W 074°08'0 0.0
2018-Feb-15 03:00N 40°38' W 074°08'0 0.0
2018-Feb-15 02:29N 40°38' W 074°08'0 0.0
2018-Feb-15 02:00N 40°38' W 074°08'3 6.3
2018-Feb-15 01:29N 40°38' W 074°12'1 0.4
2018-Feb-14 23:26N 40°37' W 074°12'2 4.3
2018-Feb-14 23:00N 40°39' W 074°11'3 5.2
2018-Feb-14 22:23N 40°39' W 074°07'1 1.6
2018-Feb-14 21:59N 40°38' W 074°08'  

Dump ship's entire track history